Time;durP1;ratioP1;P1;durP2;ratioP2;P2;SDS_P1;SDS_P2;PMS_P1;PMS_P2;Temp;Humidity;BMP_temperature;BMP_pressure;BME280_temperature;BME280_humidity;BME280_pressure;Samples;Min_cycle;Max_cycle;Signal;HPM_P1;HPM_P2
2022/01/08 00:00:53;;;;;;;;;;;;;;;4.48;97.76;100141.97;5012686;28;920;-61
2022/01/08 00:03:20;;;;;;;;;;;;;;;4.46;98.19;100144.25;5012803;28;916;-61
2022/01/08 00:05:48;;;;;;;;;;;;;;;4.44;98.11;100138.34;5012654;28;876;-61
2022/01/08 00:08:15;;;;;;;;;;;;;;;4.44;98.16;100134.81;5012851;28;931;-61
2022/01/08 00:10:41;;;;;;;;;;;;;;;4.45;97.82;100128.97;5012534;28;840;-61
2022/01/08 00:13:08;;;;;;;;;;;;;;;4.45;97.75;100130.91;5012552;28;933;-61
2022/01/08 00:15:35;;;;;;;;;;;;;;;4.42;97.43;100135.16;5012379;28;1951;-61
2022/01/08 00:18:01;;;;;;;;;;;;;;;4.44;97.67;100141.09;5012084;28;1434;-61
2022/01/08 00:20:28;;;;;;;;;;;;;;;4.42;97.51;100137.91;5012460;28;872;-61
2022/01/08 00:22:56;;;;;;;;;;;;;;;4.40;97.58;100133.94;5012323;28;836;-61
2022/01/08 00:25:23;;;;;;;;;;;;;;;4.39;97.92;100135.84;4994655;28;2514;-61
2022/01/08 00:27:49;;;;;;;;;;;;;;;4.39;97.98;100127.63;5012217;28;861;-61
2022/01/08 00:30:15;;;;;;;;;;;;;;;4.41;97.88;100116.34;5012255;28;817;-61
2022/01/08 00:32:42;;;;;;;;;;;;;;;4.40;97.63;100120.25;4994566;28;833;-61
2022/01/08 00:35:09;;;;;;;;;;;;;;;4.44;97.34;100124.66;5012076;28;1910;-61
2022/01/08 00:37:37;;;;;;;;;;;;;;;4.46;97.67;100130.56;5011628;28;879;-61
2022/01/08 00:40:07;;;;;;;;;;;;;;;4.52;97.35;100122.88;5012063;28;888;-61
2022/01/08 00:42:34;;;;;;;;;;;;;;;4.50;96.95;100122.44;5012036;28;896;-61
2022/01/08 00:45:01;;;;;;;;;;;;;;;4.57;96.77;100111.69;5012169;28;891;-61
2022/01/08 00:47:28;;;;;;;;;;;;;;;4.59;96.19;100125.03;5011933;28;852;-61
2022/01/08 00:49:54;;;;;;;;;;;;;;;4.59;95.53;100108.59;5011925;28;829;-61
2022/01/08 00:52:20;;;;;;;;;;;;;;;4.60;95.75;100113.69;5011977;28;817;-61
2022/01/08 00:54:46;;;;;;;;;;;;;;;4.59;94.55;100111.34;5011731;28;1949;-61
2022/01/08 00:57:13;;;;;;;;;;;;;;;4.64;94.52;100119.25;5011855;28;829;-61
2022/01/08 00:59:39;;;;;;;;;;;;;;;4.63;94.59;100115.75;5012105;28;868;-61
2022/01/08 01:02:06;;;;;;;;;;;;;;;4.65;94.52;100110.69;5011923;28;878;-61
2022/01/08 01:04:32;;;;;;;;;;;;;;;4.63;94.47;100110.25;5011835;28;820;-61
2022/01/08 01:06:59;;;;;;;;;;;;;;;4.65;94.24;100104.41;5011740;28;848;-61
2022/01/08 01:09:26;;;;;;;;;;;;;;;4.63;94.78;100104.78;5011669;28;887;-61
2022/01/08 01:11:56;;;;;;;;;;;;;;;4.67;94.34;100107.59;5011667;28;1119;-62
2022/01/08 01:14:24;;;;;;;;;;;;;;;4.65;94.29;100101.66;5011684;28;848;-61
2022/01/08 01:16:50;;;;;;;;;;;;;;;4.66;94.29;100084.91;5011515;28;1886;-61
2022/01/08 01:19:17;;;;;;;;;;;;;;;4.62;94.29;100075.81;5011572;28;1425;-61
2022/01/08 01:21:44;;;;;;;;;;;;;;;4.64;94.38;100076.25;5011581;28;824;-61
2022/01/08 01:24:15;;;;;;;;;;;;;;;4.63;94.74;100079.31;5011582;28;903;-61
2022/01/08 01:26:56;;;;;;;;;;;;;;;4.60;94.44;100074.56;5011899;28;832;-61
2022/01/08 01:29:41;;;;;;;;;;;;;;;4.65;94.17;100077.84;5011490;28;863;-61
2022/01/08 01:48:22;;;;;;;;;;;;;;;4.45;95.15;100089.88;5011672;28;657;-61
2022/01/08 01:50:48;;;;;;;;;;;;;;;4.42;95.28;100085.91;5014593;28;828;-61
2022/01/08 01:53:15;;;;;;;;;;;;;;;4.39;95.80;100083.84;5015093;28;880;-61
2022/01/08 01:55:42;;;;;;;;;;;;;;;4.36;96.16;100092.78;5015022;28;1957;-61
2022/01/08 01:58:10;;;;;;;;;;;;;;;4.34;96.40;100084.13;5015140;28;887;-61
2022/01/08 02:00:37;;;;;;;;;;;;;;;4.35;96.68;100082.19;5014834;28;931;-61
2022/01/08 02:03:03;;;;;;;;;;;;;;;4.33;96.67;100076.25;5014875;28;841;-61
2022/01/08 02:05:29;;;;;;;;;;;;;;;4.34;96.67;100066.91;5014929;28;896;-61
2022/01/08 02:07:57;;;;;;;;;;;;;;;4.34;96.77;100058.72;5014822;28;840;-61
2022/01/08 02:10:23;;;;;;;;;;;;;;;4.32;96.71;100055.53;5014757;28;820;-61
2022/01/08 02:12:50;;;;;;;;;;;;;;;4.32;97.07;100055.53;5015083;28;937;-61
2022/01/08 02:15:16;;;;;;;;;;;;;;;4.30;97.17;100062.13;5014584;28;1866;-61
2022/01/08 02:17:42;;;;;;;;;;;;;;;4.30;97.48;100061.34;5014502;28;1420;-61
2022/01/08 02:20:10;;;;;;;;;;;;;;;4.30;97.35;100055.88;5014525;28;817;-61
2022/01/08 02:22:37;;;;;;;;;;;;;;;4.28;97.27;100061.69;5014609;28;915;-61
2022/01/08 02:25:03;;;;;;;;;;;;;;;4.23;97.71;100053.78;5014448;28;867;-61
2022/01/08 02:27:30;;;;;;;;;;;;;;;4.21;97.85;100039.66;5014477;28;856;-61
2022/01/08 02:29:56;;;;;;;;;;;;;;;4.20;97.91;100031.78;5014364;28;856;-61
2022/01/08 02:32:27;;;;;;;;;;;;;;;4.15;97.94;100032.06;5014373;28;1000;-61
2022/01/08 02:34:54;;;;;;;;;;;;;;;4.14;97.85;100028.53;5014265;28;1983;-61
2022/01/08 02:37:25;;;;;;;;;;;;;;;4.16;97.69;100020.78;5014260;28;856;-61
2022/01/08 02:39:52;;;;;;;;;;;;;;;4.17;97.75;100022.34;5014741;28;785;-61
2022/01/08 02:42:19;;;;;;;;;;;;;;;4.17;97.27;100021.56;5014394;28;891;-60
2022/01/08 02:44:47;;;;;;;;;;;;;;;4.18;97.36;100012.19;5014788;28;848;-61
2022/01/08 02:47:13;;;;;;;;;;;;;;;4.16;97.13;100017.22;5014233;28;868;-61
2022/01/08 02:49:40;;;;;;;;;;;;;;;4.12;97.08;100014.41;5014261;28;913;-61
2022/01/08 02:52:07;;;;;;;;;;;;;;;4.13;96.93;100016.00;5014281;28;820;-61
2022/01/08 02:54:34;;;;;;;;;;;;;;;4.13;96.48;100013.25;4996506;28;1951;-61
2022/01/08 02:57:00;;;;;;;;;;;;;;;4.13;96.39;100017.94;5014372;28;832;-61
2022/01/08 02:59:27;;;;;;;;;;;;;;;4.12;96.19;100008.94;5014166;28;813;-61
2022/01/08 03:01:54;;;;;;;;;;;;;;;4.12;95.85;100014.41;5013962;28;797;-60
2022/01/08 03:04:20;;;;;;;;;;;;;;;4.11;95.54;99995.63;5013679;28;1273;-60
2022/01/08 03:06:47;;;;;;;;;;;;;;;4.13;95.42;100004.25;5013779;28;832;-61
2022/01/08 03:09:13;;;;;;;;;;;;;;;4.10;95.17;100000.28;5013664;28;812;-60
2022/01/08 03:11:41;;;;;;;;;;;;;;;4.11;95.36;100001.88;5013633;28;1024;-61
2022/01/08 03:14:07;;;;;;;;;;;;;;;4.08;95.23;99999.84;5013986;28;964;-60
2022/01/08 03:16:34;;;;;;;;;;;;;;;4.08;95.31;99991.66;5013482;28;1949;-60
2022/01/08 03:19:08;;;;;;;;;;;;;;;4.04;95.35;99993.50;4995754;28;1471;-60
2022/01/08 03:21:36;;;;;;;;;;;;;;;4.01;95.73;99981.34;5013445;28;832;-60
2022/01/08 03:24:05;;;;;;;;;;;;;;;4.00;96.06;99987.16;5013498;28;821;-60
2022/01/08 03:26:32;;;;;;;;;;;;;;;3.98;95.34;99986.72;5013304;28;848;-60
2022/01/08 03:28:58;;;;;;;;;;;;;;;3.98;95.53;99992.97;5013295;28;868;-60
2022/01/08 03:31:26;;;;;;;;;;;;;;;3.97;95.49;99982.38;5013366;28;836;-61
2022/01/08 03:33:53;;;;;;;;;;;;;;;3.96;95.21;99984.31;5013226;28;837;-60
2022/01/08 03:36:21;;;;;;;;;;;;;;;3.96;95.41;99973.38;5013063;28;1979;-60
2022/01/08 03:38:47;;;;;;;;;;;;;;;3.94;95.28;99980.34;5013442;28;848;-61
2022/01/08 03:41:14;;;;;;;;;;;;;;;3.94;95.24;99975.66;5013107;28;860;-60
2022/01/08 03:43:40;;;;;;;;;;;;;;;3.94;95.52;99969.41;5013013;28;852;-60
2022/01/08 03:46:06;;;;;;;;;;;;;;;3.88;95.50;99979.81;5013129;28;980;-61
2022/01/08 03:51:20;;;;;;;;;;;;;;;3.87;95.81;99970.81;4972574;28;1336;-61
2022/01/08 03:53:46;;;;;;;;;;;;;;;3.88;95.65;99966.13;5012876;28;848;-61
2022/01/08 03:56:12;;;;;;;;;;;;;;;3.87;95.67;99970.81;5012839;28;1910;-60
2022/01/08 03:58:39;;;;;;;;;;;;;;;3.89;95.26;99974.00;5012703;28;837;-61
2022/01/08 04:01:05;;;;;;;;;;;;;;;3.88;95.38;99961.50;5012780;28;852;-61
2022/01/08 04:03:31;;;;;;;;;;;;;;;3.88;95.59;99982.56;5012813;28;899;-61
2022/01/08 04:05:58;;;;;;;;;;;;;;;3.89;95.28;99976.75;5013293;28;796;-61
2022/01/08 04:08:25;;;;;;;;;;;;;;;3.87;95.60;99970.03;5012783;28;987;-61
2022/01/08 04:10:51;;;;;;;;;;;;;;;3.86;95.89;99968.44;5012774;28;828;-61
2022/01/08 04:13:25;;;;;;;;;;;;;;;3.86;95.60;99974.72;5012224;28;974;-61
2022/01/08 04:15:56;;;;;;;;;;;;;;;3.87;95.39;99964.56;5012427;28;1874;-61
2022/01/08 04:18:22;;;;;;;;;;;;;;;3.87;95.79;99968.09;5012248;28;1275;-61
2022/01/08 04:23:21;;;;;;;;;;;;;;;3.87;95.76;99962.63;5012390;28;702;-61
2022/01/08 04:25:49;;;;;;;;;;;;;;;3.86;95.33;99961.03;5012312;28;960;-61
2022/01/08 04:28:15;;;;;;;;;;;;;;;3.88;95.87;99966.13;5012293;28;855;-62
2022/01/08 04:30:41;;;;;;;;;;;;;;;3.88;96.10;99960.66;5012194;28;1184;-61
2022/01/08 04:33:08;;;;;;;;;;;;;;;3.85;96.17;99962.19;5012190;28;856;-62
2022/01/08 04:35:35;;;;;;;;;;;;;;;3.86;96.17;99963.78;5012082;28;1981;-63
2022/01/08 04:38:01;;;;;;;;;;;;;;;3.87;96.64;99961.84;4994490;28;1237;-62
2022/01/08 04:40:27;;;;;;;;;;;;;;;3.86;96.45;99963.78;4994457;28;1165;-62
2022/01/08 04:42:54;;;;;;;;;;;;;;;3.87;96.33;99964.56;5012237;28;829;-62
2022/01/08 04:45:22;;;;;;;;;;;;;;;3.87;96.35;99953.63;5012053;28;861;-62
2022/01/08 04:47:48;;;;;;;;;;;;;;;3.86;96.66;99958.31;5012038;28;824;-63
2022/01/08 04:50:14;;;;;;;;;;;;;;;3.85;96.48;99951.25;5011947;28;852;-63
2022/01/08 04:52:41;;;;;;;;;;;;;;;3.83;96.57;99964.47;5012040;28;813;-63
2022/01/08 04:55:08;;;;;;;;;;;;;;;3.82;96.89;99954.69;5011758;28;1952;-61
2022/01/08 04:57:34;;;;;;;;;;;;;;;3.80;96.80;99948.78;4994169;28;1366;-63
2022/01/08 05:00:01;;;;;;;;;;;;;;;3.80;97.08;99953.47;5011847;28;911;-63
2022/01/08 05:02:27;;;;;;;;;;;;;;;3.81;96.76;99955.03;5011875;28;868;-64
2022/01/08 05:04:53;;;;;;;;;;;;;;;3.77;96.84;99944.00;5011778;28;884;-62
2022/01/08 05:07:20;;;;;;;;;;;;;;;3.77;96.53;99940.47;5011693;28;903;-65
2022/01/08 05:09:46;;;;;;;;;;;;;;;3.72;96.73;99938.81;5011735;28;848;-64
2022/01/08 05:12:12;;;;;;;;;;;;;;;3.72;96.65;99930.63;5011755;28;925;-64
2022/01/08 05:14:38;;;;;;;;;;;;;;;3.73;96.97;99931.41;5011610;28;1930;-63
2022/01/08 05:17:05;;;;;;;;;;;;;;;3.74;97.17;99938.47;5011533;28;1180;-64
2022/01/08 05:19:49;;;;;;;;;;;;;;;3.71;97.50;99934.47;5011680;28;829;-64
2022/01/08 05:22:27;;;;;;;;;;;;;;;3.74;97.70;99933.00;5011874;28;864;-64
2022/01/08 05:24:54;;;;;;;;;;;;;;;3.68;97.56;99918.78;5015248;28;832;-62
2022/01/08 05:27:20;;;;;;;;;;;;;;;3.67;97.91;99917.22;5015493;28;828;-63
2022/01/08 05:29:48;;;;;;;;;;;;;;;3.70;97.35;99921.97;5015648;28;899;-63
2022/01/08 05:32:18;;;;;;;;;;;;;;;3.72;97.78;99916.94;5015524;28;915;-65
2022/01/08 05:34:46;;;;;;;;;;;;;;;3.71;97.67;99909.88;5015421;28;1922;-64
2022/01/08 05:37:12;;;;;;;;;;;;;;;3.75;97.82;99913.50;5015412;28;812;-64
2022/01/08 05:39:39;;;;;;;;;;;;;;;3.75;97.54;99916.22;5015331;28;884;-64
2022/01/08 05:42:06;;;;;;;;;;;;;;;3.79;97.59;99906.16;5015664;28;824;-64
2022/01/08 05:44:33;;;;;;;;;;;;;;;3.80;97.67;99909.72;5015268;28;868;-64
2022/01/08 05:47:00;;;;;;;;;;;;;;;3.86;97.69;99906.34;5015206;28;848;-64
2022/01/08 05:49:27;;;;;;;;;;;;;;;3.91;97.67;99915.44;5015157;28;825;-64
2022/01/08 05:51:54;;;;;;;;;;;;;;;3.99;97.76;99900.75;5015146;28;879;-65
2022/01/08 05:54:20;;;;;;;;;;;;;;;4.10;97.48;99899.09;5015340;28;817;-64
2022/01/08 05:56:48;;;;;;;;;;;;;;;4.18;97.46;99914.50;5014974;28;1939;-64
2022/01/08 05:59:15;;;;;;;;;;;;;;;4.24;97.15;99904.06;5014952;28;927;-64
2022/01/08 06:01:42;;;;;;;;;;;;;;;4.34;96.81;99910.94;5014988;28;906;-63
2022/01/08 06:04:08;;;;;;;;;;;;;;;4.42;96.45;99901.75;5014934;28;821;-64
2022/01/08 06:06:35;;;;;;;;;;;;;;;4.48;95.71;99900.28;5014889;28;829;-64
2022/01/08 06:09:02;;;;;;;;;;;;;;;4.48;95.90;99900.28;5015103;28;871;-65
2022/01/08 06:11:29;;;;;;;;;;;;;;;4.49;95.83;99902.66;5014832;28;836;-64
2022/01/08 06:13:55;;;;;;;;;;;;;;;4.54;95.58;99898.84;4997300;28;1504;-64
2022/01/08 06:16:22;;;;;;;;;;;;;;;4.59;95.21;99890.38;4996933;28;1957;-64
2022/01/08 06:18:48;;;;;;;;;;;;;;;4.66;95.01;99890.50;4996913;28;1352;-64
2022/01/08 06:21:15;;;;;;;;;;;;;;;4.73;94.51;99897.28;5014826;28;904;-63
2022/01/08 06:23:41;;;;;;;;;;;;;;;4.77;94.30;99895.41;5014574;28;832;-64
2022/01/08 06:26:08;;;;;;;;;;;;;;;4.82;93.62;99892.38;5014453;28;884;-64
2022/01/08 06:28:35;;;;;;;;;;;;;;;4.87;93.29;99879.19;5014424;28;878;-63
2022/01/08 06:31:02;;;;;;;;;;;;;;;4.91;93.85;99893.75;5014438;28;801;-64
2022/01/08 06:33:28;;;;;;;;;;;;;;;4.96;92.75;99898.13;5014427;28;848;-64
2022/01/08 06:35:54;;;;;;;;;;;;;;;5.05;92.55;99884.19;5013498;28;1910;-63
2022/01/08 06:38:21;;;;;;;;;;;;;;;5.02;92.96;99879.47;5014269;28;1083;-63
2022/01/08 06:40:47;;;;;;;;;;;;;;;5.05;92.20;99885.00;5014255;28;809;-63
2022/01/08 06:43:14;;;;;;;;;;;;;;;5.11;92.82;99888.22;5014109;28;895;-64
2022/01/08 06:45:40;;;;;;;;;;;;;;;5.18;92.11;99896.56;5014475;28;900;-62
2022/01/08 06:48:06;;;;;;;;;;;;;;;5.20;91.64;99898.97;5014069;28;934;-63
2022/01/08 06:50:33;;;;;;;;;;;;;;;5.25;91.13;99899.47;5014284;28;832;-62
2022/01/08 06:52:59;;;;;;;;;;;;;;;5.25;90.88;99898.69;5014200;28;887;-62
2022/01/08 06:55:26;;;;;;;;;;;;;;;5.26;91.83;99895.56;5013817;28;1894;-62
2022/01/08 06:57:54;;;;;;;;;;;;;;;5.26;92.29;99900.25;5014194;28;899;-62
2022/01/08 07:00:21;;;;;;;;;;;;;;;5.21;92.25;99895.84;5013925;28;899;-62
2022/01/08 07:02:47;;;;;;;;;;;;;;;5.22;92.59;99894.69;5013845;28;911;-62
2022/01/08 07:05:13;;;;;;;;;;;;;;;5.23;92.45;99885.31;5013741;28;867;-62
2022/01/08 07:07:40;;;;;;;;;;;;;;;5.34;91.91;99887.47;5014012;28;848;-61
2022/01/08 07:10:06;;;;;;;;;;;;;;;5.46;91.22;99890.00;5013680;28;860;-62
2022/01/08 07:12:33;;;;;;;;;;;;;;;5.54;90.80;99883.50;5013875;28;1038;-61
2022/01/08 07:14:59;;;;;;;;;;;;;;;5.63;89.75;99884.06;5013581;28;1890;-61
2022/01/08 07:17:25;;;;;;;;;;;;;;;5.75;89.45;99880.31;5013596;28;1253;-61
2022/01/08 07:19:52;;;;;;;;;;;;;;;5.79;88.75;99878.41;5013795;28;864;-61
2022/01/08 07:22:18;;;;;;;;;;;;;;;5.85;89.24;99871.47;5013914;28;852;-61
2022/01/08 07:24:45;;;;;;;;;;;;;;;5.90;89.10;99873.09;5013509;28;824;-61
2022/01/08 07:27:11;;;;;;;;;;;;;;;5.89;88.48;99877.81;5013745;28;920;-60
2022/01/08 07:29:38;;;;;;;;;;;;;;;5.93;88.54;99864.94;5013194;28;887;-60
2022/01/08 07:32:04;;;;;;;;;;;;;;;6.01;88.29;99876.81;5013272;28;900;-60
2022/01/08 07:34:32;;;;;;;;;;;;;;;6.13;87.29;99878.56;5013102;28;1111;-60
2022/01/08 07:36:58;;;;;;;;;;;;;;;6.24;87.73;99876.75;5013156;28;1910;-60
2022/01/08 07:39:24;;;;;;;;;;;;;;;6.18;87.29;99871.97;5013364;28;844;-60
2022/01/08 07:41:51;;;;;;;;;;;;;;;6.15;87.93;99878.19;5013213;28;903;-60
2022/01/08 07:44:17;;;;;;;;;;;;;;;6.18;88.13;99866.47;5013008;28;900;-60
2022/01/08 07:46:44;;;;;;;;;;;;;;;6.32;88.62;99864.72;5012174;28;867;-60
2022/01/08 07:49:10;;;;;;;;;;;;;;;6.43;87.92;99861.31;5012937;28;848;-60
2022/01/08 07:51:37;;;;;;;;;;;;;;;6.44;86.15;99868.38;5013201;28;848;-60
2022/01/08 07:54:03;;;;;;;;;;;;;;;6.51;86.96;99863.00;5012805;28;829;-59
2022/01/08 07:56:30;;;;;;;;;;;;;;;6.65;86.45;99865.88;5012788;28;2283;-59
2022/01/08 07:58:56;;;;;;;;;;;;;;;6.70;86.19;99865.56;5012970;28;869;-59
2022/01/08 08:01:23;;;;;;;;;;;;;;;6.79;85.29;99851.53;5012590;28;821;-59
2022/01/08 08:03:49;;;;;;;;;;;;;;;6.95;84.48;99848.56;5012738;28;817;-58
2022/01/08 08:06:15;;;;;;;;;;;;;;;6.97;84.96;99864.69;5012606;28;891;-57
2022/01/08 08:08:42;;;;;;;;;;;;;;;6.97;85.37;99857.22;5012546;28;943;-58
2022/01/08 08:11:08;;;;;;;;;;;;;;;6.90;84.89;99857.94;4994892;28;1481;-58
2022/01/08 08:13:35;;;;;;;;;;;;;;;6.89;85.44;99837.13;5012749;28;987;-58
2022/01/08 08:16:02;;;;;;;;;;;;;;;6.86;85.35;99848.88;5012431;28;1890;-58
2022/01/08 08:18:28;;;;;;;;;;;;;;;6.72;85.52;99846.75;5012296;28;1302;-58
2022/01/08 08:20:54;;;;;;;;;;;;;;;6.65;85.93;99840.38;5012364;28;938;-58
2022/01/08 08:23:21;;;;;;;;;;;;;;;6.70;85.42;99838.09;5012430;28;836;-57
2022/01/08 08:25:47;;;;;;;;;;;;;;;6.71;85.13;99834.19;5012340;28;880;-57
2022/01/08 08:28:14;;;;;;;;;;;;;;;6.78;86.09;99821.69;5012199;28;841;-58
2022/01/08 08:30:41;;;;;;;;;;;;;;;6.86;85.40;99824.13;5012175;28;955;-58
2022/01/08 08:33:08;;;;;;;;;;;;;;;6.88;86.16;99818.28;5012150;28;947;-58
2022/01/08 08:38:51;;;;;;;;;;;;;;;6.59;86.52;99819.91;5012711;28;607;-58
2022/01/08 08:41:18;;;;;;;;;;;;;;;6.73;86.36;99817.34;5012108;28;821;-58
2022/01/08 08:43:44;;;;;;;;;;;;;;;6.80;86.11;99806.41;5012083;28;864;-58
2022/01/08 08:46:10;;;;;;;;;;;;;;;6.81;85.61;99799.75;5011940;28;845;-58
2022/01/08 08:48:37;;;;;;;;;;;;;;;6.94;85.67;99806.56;5012389;28;871;-58
2022/01/08 08:51:04;;;;;;;;;;;;;;;6.94;85.01;99790.06;5011973;28;879;-58
2022/01/08 08:53:30;;;;;;;;;;;;;;;7.00;85.14;99796.03;5011775;28;958;-58
2022/01/08 08:55:56;;;;;;;;;;;;;;;7.19;85.12;99791.47;5011629;28;1996;-57
2022/01/08 08:58:23;;;;;;;;;;;;;;;7.23;83.80;99793.06;5011491;28;882;-58
2022/01/08 09:00:50;;;;;;;;;;;;;;;7.31;84.03;99789.22;5012182;28;896;-58
2022/01/08 09:03:17;;;;;;;;;;;;;;;7.27;84.03;99779.34;5011837;28;813;-57
2022/01/08 09:05:43;;;;;;;;;;;;;;;7.33;84.15;99770.38;5011796;28;852;-58
2022/01/08 09:08:14;;;;;;;;;;;;;;;7.45;84.53;99766.53;5011639;28;872;-58
2022/01/08 09:10:39;;;;;;;;;;;;;;;7.57;83.52;99771.75;5012015;28;820;-57
2022/01/08 09:25:43;;;;;;;;;;;;;;;7.36;84.70;99735.81;5011679;28;616;-58
2022/01/08 09:28:10;;;;;;;;;;;;;;;7.28;84.32;99734.22;5011625;28;931;-57
2022/01/08 09:30:36;;;;;;;;;;;;;;;7.22;84.47;99727.50;4994156;28;821;-57
2022/01/08 09:33:02;;;;;;;;;;;;;;;7.22;85.16;99735.75;5011468;28;853;-58
2022/01/08 09:35:31;;;;;;;;;;;;;;;7.22;84.37;99730.25;5011514;28;1965;-58
2022/01/08 09:37:59;;;;;;;;;;;;;;;7.29;84.60;99727.53;5011513;28;887;-58
2022/01/08 09:46:33;;;;;;;;;;;;;;;7.43;84.42;99711.13;5011312;28;1266;-58
2022/01/08 09:49:05;;;;;;;;;;;;;;;7.52;83.85;99700.56;5011493;28;879;-57
2022/01/08 09:51:33;;;;;;;;;;;;;;;7.81;83.88;99698.00;5011241;28;895;-58
2022/01/08 09:54:02;;;;;;;;;;;;;;;7.99;83.74;99695.28;5011424;28;825;-58
2022/01/08 09:56:36;;;;;;;;;;;;;;;8.06;82.27;99700.03;5011169;28;1950;-58
2022/01/08 09:59:13;;;;;;;;;;;;;;;8.11;81.72;99700.47;5011282;28;903;-58
2022/01/08 10:02:05;;;;;;;;;;;;;;;8.09;82.32;99694.56;5011337;28;828;-58
2022/01/08 10:04:36;;;;;;;;;;;;;;;8.28;82.61;99690.69;4993635;28;1361;-58
2022/01/08 10:07:16;;;;;;;;;;;;;;;8.49;81.44;99678.94;4993649;28;1164;-58
2022/01/08 10:10:00;;;;;;;;;;;;;;;8.47;81.93;99680.50;4993526;28;1383;-58
2022/01/08 10:12:49;;;;;;;;;;;;;;;8.59;81.44;99675.41;5014928;28;909;-58
2022/01/08 10:18:01;;;;;;;;;;;;;;;8.32;82.75;99668.63;5014993;28;640;-58
2022/01/08 10:20:32;;;;;;;;;;;;;;;8.39;83.08;99663.16;4997224;28;1417;-58
2022/01/08 10:23:11;;;;;;;;;;;;;;;8.18;82.34;99666.66;5014663;28;1363;-57
2022/01/08 10:25:41;;;;;;;;;;;;;;;8.02;82.22;99666.22;4996972;28;1346;-57
2022/01/08 10:28:08;;;;;;;;;;;;;;;7.83;82.60;99651.63;5014400;28;880;-58
2022/01/08 10:30:35;;;;;;;;;;;;;;;7.80;83.72;99654.34;5014485;28;836;-58
2022/01/08 10:33:02;;;;;;;;;;;;;;;7.89;84.45;99647.28;5014249;28;927;-57
2022/01/08 10:35:47;;;;;;;;;;;;;;;7.91;83.57;99650.44;4997141;28;1911;-58
2022/01/08 10:38:13;;;;;;;;;;;;;;;7.79;84.24;99656.31;5014189;28;911;-57
2022/01/08 10:40:41;;;;;;;;;;;;;;;7.77;83.98;99655.91;5014360;28;878;-58
2022/01/08 10:43:21;;;;;;;;;;;;;;;7.92;84.74;99654.78;4996856;28;871;-58
2022/01/08 10:45:48;;;;;;;;;;;;;;;7.85;84.98;99651.22;5014146;28;804;-57
2022/01/08 10:48:25;;;;;;;;;;;;;;;7.79;84.73;99648.06;4996602;28;2178;-57
2022/01/08 10:50:52;;;;;;;;;;;;;;;7.59;85.20;99644.03;5014008;28;911;-58
2022/01/08 10:53:19;;;;;;;;;;;;;;;7.42;86.29;99638.06;5013948;28;963;-58
2022/01/08 10:55:46;;;;;;;;;;;;;;;7.38;87.15;99634.50;5013800;28;1950;-57
2022/01/08 10:58:13;;;;;;;;;;;;;;;7.32;87.46;99636.84;4996396;28;1276;-57
2022/01/08 11:00:40;;;;;;;;;;;;;;;7.46;88.42;99627.84;5013755;28;908;-58
2022/01/08 11:03:08;;;;;;;;;;;;;;;7.59;87.41;99628.31;4980227;28;1209;-58
2022/01/08 11:05:54;;;;;;;;;;;;;;;7.64;87.67;99624.41;5013666;28;903;-58
2022/01/08 11:08:21;;;;;;;;;;;;;;;7.67;87.62;99609.88;4996071;28;1305;-58
2022/01/08 11:10:48;;;;;;;;;;;;;;;7.62;86.89;99618.50;5013586;28;927;-58
2022/01/08 11:13:16;;;;;;;;;;;;;;;7.46;88.17;99608.59;5013847;28;973;-58
2022/01/08 11:15:51;;;;;;;;;;;;;;;7.26;87.65;99605.38;4996009;28;1894;-57
2022/01/08 11:18:19;;;;;;;;;;;;;;;7.25;89.01;99597.50;4996014;28;1400;-57
2022/01/08 11:20:46;;;;;;;;;;;;;;;7.23;88.80;99592.38;4995518;28;1336;-57
2022/01/08 11:23:15;;;;;;;;;;;;;;;7.27;89.17;99592.41;5013258;28;1425;-58
2022/01/08 11:25:45;;;;;;;;;;;;;;;7.23;89.28;99600.63;4995781;28;1331;-58
2022/01/08 11:28:12;;;;;;;;;;;;;;;7.24;89.21;99598.69;5013201;28;938;-57
2022/01/08 11:30:43;;;;;;;;;;;;;;;7.24;89.87;99598.69;5013132;28;908;-58
2022/01/08 11:33:16;;;;;;;;;;;;;;;7.20;90.36;99595.91;5013192;28;869;-58
2022/01/08 11:35:43;;;;;;;;;;;;;;;7.17;90.44;99591.19;4995709;28;1918;-57
2022/01/08 11:38:12;;;;;;;;;;;;;;;7.22;90.80;99587.28;5005419;28;840;-58
2022/01/08 11:40:43;;;;;;;;;;;;;;;7.18;91.16;99586.50;4995934;28;812;-57
2022/01/08 11:43:11;;;;;;;;;;;;;;;7.12;90.63;99572.31;4995470;28;1289;-57
2022/01/08 11:45:40;;;;;;;;;;;;;;;7.16;91.19;99573.91;4995495;28;1251;-58
2022/01/08 11:48:10;;;;;;;;;;;;;;;7.21;91.78;99569.22;5012972;28;852;-57
2022/01/08 11:50:37;;;;;;;;;;;;;;;7.31;90.97;99563.75;4995445;28;932;-57
2022/01/08 11:53:16;;;;;;;;;;;;;;;7.32;90.75;99567.31;4995589;28;833;-57
2022/01/08 11:55:50;;;;;;;;;;;;;;;7.42;90.24;99563.03;5012788;28;1957;-57
2022/01/08 11:58:17;;;;;;;;;;;;;;;7.51;90.55;99558.75;4995304;28;1422;-57
2022/01/08 12:00:54;;;;;;;;;;;;;;;7.63;89.78;99565.06;4995080;28;2087;-57
2022/01/08 12:03:22;;;;;;;;;;;;;;;7.68;90.64;99564.69;5013182;28;829;-57
2022/01/08 12:05:49;;;;;;;;;;;;;;;7.68;89.58;99560.00;5013031;28;567;-57
2022/01/08 12:08:18;;;;;;;;;;;;;;;7.63;89.11;99557.59;4995279;28;1238;-57
2022/01/08 12:11:00;;;;;;;;;;;;;;;7.64;89.44;99556.44;5012422;28;916;-57
2022/01/08 12:13:45;;;;;;;;;;;;;;;7.67;89.12;99555.66;4995065;28;1414;-57
2022/01/08 12:16:30;;;;;;;;;;;;;;;7.62;89.67;99549.72;5012742;28;1956;-57
2022/01/08 12:18:55;;;;;;;;;;;;;;;7.61;90.28;99551.69;5012414;28;895;-57
2022/01/08 12:21:32;;;;;;;;;;;;;;;7.67;90.45;99550.16;5012470;28;812;-57
2022/01/08 12:23:59;;;;;;;;;;;;;;;7.75;89.88;99543.50;5011907;28;1495;-57
2022/01/08 12:26:25;;;;;;;;;;;;;;;7.80;89.60;99539.56;5012438;28;836;-57
2022/01/08 12:28:53;;;;;;;;;;;;;;;7.91;90.07;99536.81;5012569;28;812;-57
2022/01/08 12:31:30;;;;;;;;;;;;;;;8.00;89.83;99534.50;5012440;28;939;-57
2022/01/08 12:34:16;;;;;;;;;;;;;;;8.04;90.11;99542.75;5011679;28;887;-57
2022/01/08 12:37:01;;;;;;;;;;;;;;;8.00;89.39;99544.69;5012104;28;2000;-57
2022/01/08 12:39:42;;;;;;;;;;;;;;;7.92;89.40;99533.69;5012285;28;866;-57
2022/01/08 12:42:19;;;;;;;;;;;;;;;7.93;89.64;99542.72;4994513;28;876;-57
2022/01/08 12:45:04;;;;;;;;;;;;;;;7.97;90.01;99544.31;5012092;28;1034;-57
2022/01/08 12:47:46;;;;;;;;;;;;;;;7.89;89.74;99548.22;5011936;28;924;-57
2022/01/08 12:50:19;;;;;;;;;;;;;;;7.90;90.28;99540.78;5011948;28;844;-57
2022/01/08 12:53:03;;;;;;;;;;;;;;;7.88;90.38;99535.66;5012345;28;824;-57
2022/01/08 12:55:29;;;;;;;;;;;;;;;7.84;90.73;99531.31;5011998;28;1886;-57
2022/01/08 12:57:55;;;;;;;;;;;;;;;7.78;89.89;99530.91;5011916;28;901;-57
2022/01/08 13:00:21;;;;;;;;;;;;;;;7.74;90.46;99533.66;5011834;28;820;-57
2022/01/08 13:02:47;;;;;;;;;;;;;;;7.84;90.93;99536.81;5011752;28;931;-57
2022/01/08 13:05:13;;;;;;;;;;;;;;;7.91;90.48;99536.81;5011707;28;971;-57
2022/01/08 13:07:48;;;;;;;;;;;;;;;8.01;90.59;99533.31;5011678;28;966;-56
2022/01/08 13:10:14;;;;;;;;;;;;;;;8.01;90.28;99532.53;5011779;28;824;-57
2022/01/08 13:12:40;;;;;;;;;;;;;;;7.94;89.79;99528.59;5012024;28;1000;-57
2022/01/08 13:15:05;;;;;;;;;;;;;;;7.96;89.52;99528.22;5012352;28;1949;-57
2022/01/08 13:17:31;;;;;;;;;;;;;;;7.98;89.61;99534.88;5011530;28;968;-57
2022/01/08 13:20:01;;;;;;;;;;;;;;;7.99;89.44;99530.16;4994109;28;916;-57
2022/01/08 13:22:27;;;;;;;;;;;;;;;8.02;89.83;99525.84;5011886;28;896;-57
2022/01/08 13:24:54;;;;;;;;;;;;;;;7.96;89.80;99536.47;4994040;28;1418;-57
2022/01/08 13:27:22;;;;;;;;;;;;;;;7.97;90.25;99538.03;5012088;28;853;-57
2022/01/08 13:29:50;;;;;;;;;;;;;;;7.98;90.53;99534.88;5011863;28;1508;-57
2022/01/08 13:32:18;;;;;;;;;;;;;;;7.95;90.22;99534.88;5011718;28;956;-57
2022/01/08 13:34:56;;;;;;;;;;;;;;;7.86;90.81;99532.50;5011585;28;852;-57
2022/01/08 13:37:24;;;;;;;;;;;;;;;7.76;91.14;99523.03;4993848;28;1216;-57
2022/01/08 13:39:54;;;;;;;;;;;;;;;7.74;91.89;99532.88;5011501;28;828;-57
2022/01/08 13:42:22;;;;;;;;;;;;;;;7.75;91.91;99529.72;4993698;28;1209;-57
2022/01/08 13:44:51;;;;;;;;;;;;;;;7.66;92.75;99529.31;5013013;28;962;-57
2022/01/08 13:47:23;;;;;;;;;;;;;;;7.65;92.87;99524.22;5015332;28;907;-57
2022/01/08 13:49:53;;;;;;;;;;;;;;;7.64;93.35;99517.94;5015309;28;851;-57
2022/01/08 13:52:27;;;;;;;;;;;;;;;7.63;93.09;99508.09;5014931;28;939;-57
2022/01/08 13:55:11;;;;;;;;;;;;;;;7.69;93.36;99506.53;5014986;28;865;-57
2022/01/08 13:57:38;;;;;;;;;;;;;;;7.74;93.65;99508.09;5015189;28;860;-57
2022/01/08 14:00:15;;;;;;;;;;;;;;;7.74;93.20;99508.88;5014874;28;943;-57
2022/01/08 14:02:42;;;;;;;;;;;;;;;7.82;93.12;99506.94;5015405;28;866;-56
2022/01/08 14:05:09;;;;;;;;;;;;;;;7.93;93.20;99516.00;5015335;28;892;-56